createdAt,value
2024-04-12T00:00:47.000Z,1039.35
2024-04-12T00:01:48.000Z,1039.32
2024-04-12T00:02:48.000Z,1039.25
2024-04-12T00:03:48.000Z,1039.22
2024-04-12T00:04:49.000Z,1039.32
2024-04-12T00:05:49.000Z,1039.28
2024-04-12T00:06:49.000Z,1039.3
2024-04-12T00:07:50.000Z,1039.27
2024-04-12T00:08:50.000Z,1039.3
2024-04-12T00:09:50.000Z,1039.26
2024-04-12T00:10:50.000Z,1039.24
2024-04-12T00:11:51.000Z,1039.17
2024-04-12T00:12:51.000Z,1039.25
2024-04-12T00:13:51.000Z,1039.23
2024-04-12T00:14:51.000Z,1039.23
2024-04-12T00:15:52.000Z,1039.23
2024-04-12T00:16:52.000Z,1039.15
2024-04-12T00:17:52.000Z,1039.14
2024-04-12T00:18:52.000Z,1039.11
2024-04-12T00:19:53.000Z,1039.09
2024-04-12T00:20:53.000Z,1039.11
2024-04-12T00:21:53.000Z,1038.98
2024-04-12T00:22:53.000Z,1039.01
2024-04-12T00:23:54.000Z,1038.99
2024-04-12T00:24:54.000Z,1038.97
2024-04-12T00:25:54.000Z,1038.97
2024-04-12T00:26:54.000Z,1039.04
2024-04-12T00:27:55.000Z,1039.07
2024-04-12T00:28:55.000Z,1039.04
2024-04-12T00:29:55.000Z,1039.02
2024-04-12T00:30:55.000Z,1039.01
2024-04-12T00:31:56.000Z,1038.99
2024-04-12T00:32:56.000Z,1039.05
2024-04-12T00:33:56.000Z,1039.09
2024-04-12T00:34:57.000Z,1039.0
2024-04-12T00:35:57.000Z,1039.1
2024-04-12T00:36:57.000Z,1039.07
2024-04-12T00:37:57.000Z,1038.99
2024-04-12T00:38:58.000Z,1038.98
2024-04-12T00:39:58.000Z,1039.05
2024-04-12T00:40:58.000Z,1039.03
2024-04-12T00:41:58.000Z,1039.03
2024-04-12T00:42:59.000Z,1038.98
2024-04-12T00:43:59.000Z,1038.97
2024-04-12T00:44:59.000Z,1038.92
2024-04-12T00:45:59.000Z,1038.9
2024-04-12T00:47:00.000Z,1038.93
2024-04-12T00:48:00.000Z,1038.9
2024-04-12T00:49:00.000Z,1038.93
2024-04-12T00:50:01.000Z,1038.89
2024-04-12T00:51:01.000Z,1038.87
2024-04-12T00:52:01.000Z,1038.84
2024-04-12T00:53:02.000Z,1038.82
2024-04-12T00:54:02.000Z,1038.77
2024-04-12T00:55:02.000Z,1038.8
2024-04-12T00:56:02.000Z,1038.84
2024-04-12T00:57:03.000Z,1038.83
2024-04-12T00:58:03.000Z,1038.82
2024-04-12T00:59:03.000Z,1038.82
2024-04-12T01:00:03.000Z,1038.71
2024-04-12T01:01:04.000Z,1038.75
2024-04-12T01:02:04.000Z,1038.78
2024-04-12T01:03:04.000Z,1038.74
2024-04-12T01:04:04.000Z,1038.73
2024-04-12T01:05:05.000Z,1038.68
2024-04-12T01:06:05.000Z,1038.65
2024-04-12T01:07:05.000Z,1038.7
2024-04-12T01:08:06.000Z,1038.68
2024-04-12T01:09:06.000Z,1038.71
2024-04-12T01:10:06.000Z,1038.74
2024-04-12T01:11:06.000Z,1038.63
2024-04-12T01:12:07.000Z,1038.67
2024-04-12T01:13:07.000Z,1038.71
2024-04-12T01:14:07.000Z,1038.73
2024-04-12T01:15:07.000Z,1038.76
2024-04-12T01:16:08.000Z,1038.76
2024-04-12T01:17:08.000Z,1038.79
2024-04-12T01:18:08.000Z,1038.76
2024-04-12T01:19:08.000Z,1038.81
2024-04-12T01:20:09.000Z,1038.78
2024-04-12T01:21:09.000Z,1038.79
2024-04-12T01:22:09.000Z,1038.75
2024-04-12T01:23:09.000Z,1038.77
2024-04-12T01:24:10.000Z,1038.78
2024-04-12T01:25:10.000Z,1038.83
2024-04-12T01:26:10.000Z,1038.77
2024-04-12T01:27:10.000Z,1038.82
2024-04-12T01:28:11.000Z,1038.77
2024-04-12T01:29:11.000Z,1038.82
2024-04-12T01:30:11.000Z,1038.78
2024-04-12T01:31:11.000Z,1038.8
2024-04-12T01:32:12.000Z,1038.82
2024-04-12T01:33:12.000Z,1038.81
2024-04-12T01:34:12.000Z,1038.76
2024-04-12T01:35:13.000Z,1038.75
2024-04-12T01:36:13.000Z,1038.73
2024-04-12T01:37:13.000Z,1038.75
2024-04-12T01:38:13.000Z,1038.72
2024-04-12T01:39:14.000Z,1038.74
2024-04-12T01:40:14.000Z,1038.66
2024-04-12T01:41:14.000Z,1038.71
2024-04-12T01:42:14.000Z,1038.69
2024-04-12T01:43:15.000Z,1038.71
2024-04-12T01:44:15.000Z,1038.61
2024-04-12T01:45:15.000Z,1038.59
2024-04-12T01:46:15.000Z,1038.62
2024-04-12T01:47:16.000Z,1038.64
2024-04-12T01:48:16.000Z,1038.6
2024-04-12T01:49:16.000Z,1038.6
2024-04-12T01:50:16.000Z,1038.53
2024-04-12T01:51:17.000Z,1038.58
2024-04-12T01:52:17.000Z,1038.47
2024-04-12T01:53:17.000Z,1038.55
2024-04-12T01:54:17.000Z,1038.49
2024-04-12T01:55:18.000Z,1038.52
2024-04-12T01:56:18.000Z,1038.45
2024-04-12T01:57:18.000Z,1038.44
2024-04-12T01:58:18.000Z,1038.48
2024-04-12T01:59:19.000Z,1038.49
2024-04-12T02:00:19.000Z,1038.39
2024-04-12T02:01:19.000Z,1038.49
2024-04-12T02:02:20.000Z,1038.47
2024-04-12T02:03:20.000Z,1038.46
2024-04-12T02:04:20.000Z,1038.43
2024-04-12T02:05:20.000Z,1038.42
2024-04-12T02:06:21.000Z,1038.48
2024-04-12T02:07:21.000Z,1038.45
2024-04-12T02:08:21.000Z,1038.46
2024-04-12T02:09:21.000Z,1038.44
2024-04-12T02:10:22.000Z,1038.36
2024-04-12T02:11:22.000Z,1038.44
2024-04-12T02:12:22.000Z,1038.48
2024-04-12T02:13:22.000Z,1038.46
2024-04-12T02:14:23.000Z,1038.46
2024-04-12T02:15:23.000Z,1038.43
2024-04-12T02:16:23.000Z,1038.46
2024-04-12T02:17:24.000Z,1038.46
2024-04-12T02:18:24.000Z,1038.48
2024-04-12T02:19:24.000Z,1038.47
2024-04-12T02:20:24.000Z,1038.49
2024-04-12T02:21:25.000Z,1038.49
2024-04-12T02:22:25.000Z,1038.48
2024-04-12T02:23:25.000Z,1038.46
2024-04-12T02:24:25.000Z,1038.47
2024-04-12T02:25:26.000Z,1038.47
2024-04-12T02:26:26.000Z,1038.52
2024-04-12T02:27:26.000Z,1038.49
2024-04-12T02:28:26.000Z,1038.5
2024-04-12T02:29:27.000Z,1038.51
2024-04-12T02:30:27.000Z,1038.46
2024-04-12T02:31:27.000Z,1038.47
2024-04-12T02:32:28.000Z,1038.45
2024-04-12T02:33:28.000Z,1038.52
2024-04-12T02:34:28.000Z,1038.54
2024-04-12T02:35:28.000Z,1038.55
2024-04-12T02:36:29.000Z,1038.52
2024-04-12T02:37:29.000Z,1038.53
2024-04-12T02:38:29.000Z,1038.56
2024-04-12T02:39:29.000Z,1038.5
2024-04-12T02:40:30.000Z,1038.52
2024-04-12T02:41:30.000Z,1038.5
2024-04-12T02:42:30.000Z,1038.57
2024-04-12T02:43:31.000Z,1038.56
2024-04-12T02:44:31.000Z,1038.55
2024-04-12T02:45:31.000Z,1038.54
2024-04-12T02:46:31.000Z,1038.56
2024-04-12T02:47:32.000Z,1038.54
2024-04-12T02:48:32.000Z,1038.5
2024-04-12T02:49:32.000Z,1038.48
2024-04-12T02:50:32.000Z,1038.52
2024-04-12T02:51:33.000Z,1038.55
2024-04-12T02:52:33.000Z,1038.54
2024-04-12T02:53:33.000Z,1038.55
2024-04-12T02:54:33.000Z,1038.52
2024-04-12T02:55:34.000Z,1038.57
2024-04-12T02:56:34.000Z,1038.57
2024-04-12T02:57:34.000Z,1038.58
2024-04-12T02:58:34.000Z,1038.63
2024-04-12T02:59:35.000Z,1038.62
2024-04-12T03:00:35.000Z,1038.69
2024-04-12T03:01:35.000Z,1038.69
2024-04-12T03:02:35.000Z,1038.69
2024-04-12T03:03:36.000Z,1038.71
2024-04-12T03:04:36.000Z,1038.64
2024-04-12T03:05:36.000Z,1038.72
2024-04-12T03:06:36.000Z,1038.72
2024-04-12T03:07:37.000Z,1038.72
2024-04-12T03:08:37.000Z,1038.76
2024-04-12T03:09:37.000Z,1038.68
2024-04-12T03:10:37.000Z,1038.71
2024-04-12T03:11:38.000Z,1038.69
2024-04-12T03:12:38.000Z,1038.72
2024-04-12T03:13:38.000Z,1038.73
2024-04-12T03:14:38.000Z,1038.72
2024-04-12T03:15:39.000Z,1038.77
2024-04-12T03:16:39.000Z,1038.72
2024-04-12T03:17:39.000Z,1038.68
2024-04-12T03:18:39.000Z,1038.73
2024-04-12T03:19:40.000Z,1038.7
2024-04-12T03:20:40.000Z,1038.75
2024-04-12T03:21:40.000Z,1038.77
2024-04-12T03:22:40.000Z,1038.7
2024-04-12T03:23:41.000Z,1038.65
2024-04-12T03:24:41.000Z,1038.66
2024-04-12T03:25:41.000Z,1038.72
2024-04-12T03:26:42.000Z,1038.65
2024-04-12T03:27:42.000Z,1038.68
2024-04-12T03:28:42.000Z,1038.73
2024-04-12T03:29:43.000Z,1038.73
2024-04-12T03:30:43.000Z,1038.67
2024-04-12T03:31:43.000Z,1038.59
2024-04-12T03:32:43.000Z,1038.65
2024-04-12T03:33:44.000Z,1038.64
2024-04-12T03:34:44.000Z,1038.65
2024-04-12T03:35:44.000Z,1038.57
2024-04-12T03:36:45.000Z,1038.58
2024-04-12T03:37:45.000Z,1038.54
2024-04-12T03:38:45.000Z,1038.49
2024-04-12T03:39:45.000Z,1038.47
2024-04-12T03:40:46.000Z,1038.46
2024-04-12T03:41:46.000Z,1038.46
2024-04-12T03:42:46.000Z,1038.44
2024-04-12T03:43:46.000Z,1038.44
2024-04-12T03:44:47.000Z,1038.39
2024-04-12T03:45:47.000Z,1038.4
2024-04-12T03:46:47.000Z,1038.44
2024-04-12T03:47:47.000Z,1038.43
2024-04-12T03:48:48.000Z,1038.44
2024-04-12T03:49:48.000Z,1038.44
2024-04-12T03:50:48.000Z,1038.41
2024-04-12T03:51:48.000Z,1038.43
2024-04-12T03:52:49.000Z,1038.38
2024-04-12T03:53:49.000Z,1038.37
2024-04-12T03:54:49.000Z,1038.47
2024-04-12T03:55:49.000Z,1038.52
2024-04-12T03:56:50.000Z,1038.48
2024-04-12T03:57:50.000Z,1038.52
2024-04-12T03:58:50.000Z,1038.53
2024-04-12T03:59:50.000Z,1038.55
2024-04-12T04:00:51.000Z,1038.55
2024-04-12T04:01:51.000Z,1038.6
2024-04-12T04:02:51.000Z,1038.61
2024-04-12T04:03:51.000Z,1038.62
2024-04-12T04:04:52.000Z,1038.58
2024-04-12T04:05:52.000Z,1038.6
2024-04-12T04:06:52.000Z,1038.61
2024-04-12T04:07:53.000Z,1038.63
2024-04-12T04:08:53.000Z,1038.64
2024-04-12T04:09:53.000Z,1038.58
2024-04-12T04:10:53.000Z,1038.52
2024-04-12T04:11:54.000Z,1038.59
2024-04-12T04:12:54.000Z,1038.57
2024-04-12T04:13:54.000Z,1038.59
2024-04-12T04:14:54.000Z,1038.53
2024-04-12T04:15:55.000Z,1038.47
2024-04-12T04:16:55.000Z,1038.53
2024-04-12T04:17:55.000Z,1038.47
2024-04-12T04:18:55.000Z,1038.53
2024-04-12T04:19:56.000Z,1038.53
2024-04-12T04:20:56.000Z,1038.48
2024-04-12T04:21:56.000Z,1038.48
2024-04-12T04:22:57.000Z,1038.54
2024-04-12T04:23:57.000Z,1038.5
2024-04-12T04:24:57.000Z,1038.51
2024-04-12T04:25:57.000Z,1038.58
2024-04-12T04:26:58.000Z,1038.56
2024-04-12T04:27:58.000Z,1038.59
2024-04-12T04:28:58.000Z,1038.54
2024-04-12T04:29:58.000Z,1038.55
2024-04-12T04:30:59.000Z,1038.6
2024-04-12T04:31:59.000Z,1038.58
2024-04-12T04:32:59.000Z,1038.55
2024-04-12T04:33:59.000Z,1038.58
2024-04-12T04:35:00.000Z,1038.62
2024-04-12T04:36:00.000Z,1038.49
2024-04-12T04:37:00.000Z,1038.54
2024-04-12T04:38:01.000Z,1038.46
2024-04-12T04:39:01.000Z,1038.52
2024-04-12T04:40:01.000Z,1038.52
2024-04-12T04:41:01.000Z,1038.51
2024-04-12T04:42:02.000Z,1038.53
2024-04-12T04:43:02.000Z,1038.45
2024-04-12T04:44:02.000Z,1038.58
2024-04-12T04:45:02.000Z,1038.55
2024-04-12T04:46:02.000Z,1038.55
2024-04-12T04:47:03.000Z,1038.58
2024-04-12T04:48:03.000Z,1038.54
2024-04-12T04:49:03.000Z,1038.55
2024-04-12T04:50:03.000Z,1038.63
2024-04-12T04:51:04.000Z,1038.61
2024-04-12T04:52:04.000Z,1038.61
2024-04-12T04:53:04.000Z,1038.61
2024-04-12T04:54:05.000Z,1038.64
2024-04-12T04:55:05.000Z,1038.62
2024-04-12T04:56:05.000Z,1038.64
2024-04-12T04:57:05.000Z,1038.63
2024-04-12T04:58:06.000Z,1038.66
2024-04-12T04:59:06.000Z,1038.62
2024-04-12T05:00:06.000Z,1038.64
2024-04-12T05:01:06.000Z,1038.61
2024-04-12T05:02:06.000Z,1038.67
2024-04-12T05:03:07.000Z,1038.7
2024-04-12T05:04:07.000Z,1038.65
2024-04-12T05:05:07.000Z,1038.74
2024-04-12T05:06:08.000Z,1038.68
2024-04-12T05:07:08.000Z,1038.67
2024-04-12T05:08:08.000Z,1038.66
2024-04-12T05:09:08.000Z,1038.7
2024-04-12T05:10:09.000Z,1038.64
2024-04-12T05:11:09.000Z,1038.65
2024-04-12T05:12:09.000Z,1038.65
2024-04-12T05:13:09.000Z,1038.65
2024-04-12T05:14:10.000Z,1038.67
2024-04-12T05:15:10.000Z,1038.61
2024-04-12T05:16:10.000Z,1038.61
2024-04-12T05:17:11.000Z,1038.67
2024-04-12T05:18:11.000Z,1038.6
2024-04-12T05:19:11.000Z,1038.64
2024-04-12T05:20:11.000Z,1038.65
2024-04-12T05:21:12.000Z,1038.61
2024-04-12T05:22:12.000Z,1038.58
2024-04-12T05:23:12.000Z,1038.53
2024-04-12T05:24:12.000Z,1038.53
2024-04-12T05:25:13.000Z,1038.53
2024-04-12T05:26:13.000Z,1038.54
2024-04-12T05:27:13.000Z,1038.6
2024-04-12T05:28:13.000Z,1038.57
2024-04-12T05:29:14.000Z,1038.55
2024-04-12T05:30:14.000Z,1038.52
2024-04-12T05:31:14.000Z,1038.46
2024-04-12T05:32:15.000Z,1038.39
2024-04-12T05:33:15.000Z,1038.5
2024-04-12T05:34:15.000Z,1038.46
2024-04-12T05:35:15.000Z,1038.41
2024-04-12T05:36:15.000Z,1038.42
2024-04-12T05:37:16.000Z,1038.34
2024-04-12T05:38:16.000Z,1038.34
2024-04-12T05:39:16.000Z,1038.34
2024-04-12T05:40:16.000Z,1038.32
2024-04-12T05:41:17.000Z,1038.37
2024-04-12T05:42:17.000Z,1038.31
2024-04-12T05:43:17.000Z,1038.34
2024-04-12T05:44:17.000Z,1038.36
2024-04-12T05:45:18.000Z,1038.36
2024-04-12T05:46:18.000Z,1038.32
2024-04-12T05:47:18.000Z,1038.26
2024-04-12T05:48:18.000Z,1038.28
2024-04-12T05:49:19.000Z,1038.31
2024-04-12T05:50:19.000Z,1038.27
2024-04-12T05:51:19.000Z,1038.34
2024-04-12T05:52:19.000Z,1038.3
2024-04-12T05:53:20.000Z,1038.34
2024-04-12T05:54:20.000Z,1038.27
2024-04-12T05:55:20.000Z,1038.31
2024-04-12T05:56:20.000Z,1038.28
2024-04-12T05:57:21.000Z,1038.35
2024-04-12T05:58:21.000Z,1038.37
2024-04-12T05:59:21.000Z,1038.44
2024-04-12T06:00:21.000Z,1038.45
2024-04-12T06:01:22.000Z,1038.5
2024-04-12T06:02:22.000Z,1038.5
2024-04-12T06:03:22.000Z,1038.59
2024-04-12T06:04:23.000Z,1038.59
2024-04-12T06:05:23.000Z,1038.62
2024-04-12T06:06:23.000Z,1038.52
2024-04-12T06:07:23.000Z,1038.67
2024-04-12T06:08:24.000Z,1038.66
2024-04-12T06:09:24.000Z,1038.63
2024-04-12T06:10:24.000Z,1038.6
2024-04-12T06:11:24.000Z,1038.65
2024-04-12T06:12:25.000Z,1038.56
2024-04-12T06:13:25.000Z,1038.65
2024-04-12T06:14:25.000Z,1038.64
2024-04-12T06:15:25.000Z,1038.66
2024-04-12T06:16:26.000Z,1038.68
2024-04-12T06:17:26.000Z,1038.69
2024-04-12T06:18:26.000Z,1038.55
2024-04-12T06:19:26.000Z,1038.58
2024-04-12T06:20:27.000Z,1038.49
2024-04-12T06:21:27.000Z,1038.53
2024-04-12T06:22:27.000Z,1038.53
2024-04-12T06:23:27.000Z,1038.56
2024-04-12T06:24:28.000Z,1038.55
2024-04-12T06:25:28.000Z,1038.58
2024-04-12T06:26:28.000Z,1038.52
2024-04-12T06:27:28.000Z,1038.55
2024-04-12T06:28:29.000Z,1038.52
2024-04-12T06:29:29.000Z,1038.53
2024-04-12T06:30:29.000Z,1038.43
2024-04-12T06:31:29.000Z,1038.43
2024-04-12T06:32:30.000Z,1038.44
2024-04-12T06:33:30.000Z,1038.45
2024-04-12T06:34:30.000Z,1038.41
2024-04-12T06:35:30.000Z,1038.47
2024-04-12T06:36:31.000Z,1038.34
2024-04-12T06:37:31.000Z,1038.38
2024-04-12T06:38:31.000Z,1038.43
2024-04-12T06:39:31.000Z,1038.44
2024-04-12T06:40:32.000Z,1038.46
2024-04-12T06:41:32.000Z,1038.38
2024-04-12T06:42:32.000Z,1038.44
2024-04-12T06:43:32.000Z,1038.48
2024-04-12T06:44:33.000Z,1038.46
2024-04-12T06:45:33.000Z,1038.44
2024-04-12T06:46:33.000Z,1038.42
2024-04-12T06:47:33.000Z,1038.44
2024-04-12T06:48:34.000Z,1038.47
2024-04-12T06:49:34.000Z,1038.52
2024-04-12T06:50:34.000Z,1038.54
2024-04-12T06:51:34.000Z,1038.49
2024-04-12T06:52:35.000Z,1038.54
2024-04-12T06:53:35.000Z,1038.51
2024-04-12T06:54:35.000Z,1038.49
2024-04-12T06:55:35.000Z,1038.54
2024-04-12T06:56:36.000Z,1038.5
2024-04-12T06:57:36.000Z,1038.49
2024-04-12T06:58:36.000Z,1038.53
2024-04-12T06:59:36.000Z,1038.54
2024-04-12T07:00:37.000Z,1038.53
2024-04-12T07:01:37.000Z,1038.55
2024-04-12T07:02:37.000Z,1038.6
2024-04-12T07:03:37.000Z,1038.57
2024-04-12T07:04:38.000Z,1038.62
2024-04-12T07:05:38.000Z,1038.64
2024-04-12T07:06:38.000Z,1038.69
2024-04-12T07:07:38.000Z,1038.74
2024-04-12T07:08:39.000Z,1038.71
2024-04-12T07:09:39.000Z,1038.74
2024-04-12T07:10:39.000Z,1038.77
2024-04-12T07:11:39.000Z,1038.75
2024-04-12T07:12:40.000Z,1038.71
2024-04-12T07:13:40.000Z,1038.75
2024-04-12T07:14:40.000Z,1038.8
2024-04-12T07:15:40.000Z,1038.78
2024-04-12T07:16:41.000Z,1038.78
2024-04-12T07:17:41.000Z,1038.79
2024-04-12T07:18:41.000Z,1038.76
2024-04-12T07:19:42.000Z,1038.82
2024-04-12T07:20:42.000Z,1038.77
2024-04-12T07:21:42.000Z,1038.74
2024-04-12T07:22:42.000Z,1038.72
2024-04-12T07:23:43.000Z,1038.71
2024-04-12T07:24:43.000Z,1038.73
2024-04-12T07:25:43.000Z,1038.77
2024-04-12T07:26:44.000Z,1038.75
2024-04-12T07:27:44.000Z,1038.77
2024-04-12T07:28:44.000Z,1038.73
2024-04-12T07:29:44.000Z,1038.67
2024-04-12T07:30:44.000Z,1038.68
2024-04-12T07:31:45.000Z,1038.68
2024-04-12T07:32:45.000Z,1038.66
2024-04-12T07:33:45.000Z,1038.67
2024-04-12T07:34:46.000Z,1038.66
2024-04-12T07:35:46.000Z,1038.66
2024-04-12T07:36:46.000Z,1038.73
2024-04-12T07:37:46.000Z,1038.76
2024-04-12T07:38:47.000Z,1038.73
2024-04-12T07:39:47.000Z,1038.73
2024-04-12T07:40:47.000Z,1038.69
2024-04-12T07:41:47.000Z,1038.77
2024-04-12T07:42:48.000Z,1038.76
2024-04-12T07:43:48.000Z,1038.73
2024-04-12T07:44:48.000Z,1038.66
2024-04-12T07:45:48.000Z,1038.61
2024-04-12T07:46:49.000Z,1038.63
2024-04-12T07:47:49.000Z,1038.65
2024-04-12T07:48:49.000Z,1038.59
2024-04-12T07:49:49.000Z,1038.58
2024-04-12T07:50:50.000Z,1038.59
2024-04-12T07:51:50.000Z,1038.59
2024-04-12T07:52:50.000Z,1038.65
2024-04-12T07:53:50.000Z,1038.66
2024-04-12T07:54:51.000Z,1038.63
2024-04-12T07:55:51.000Z,1038.68
2024-04-12T07:56:51.000Z,1038.69
2024-04-12T07:57:52.000Z,1038.71
2024-04-12T07:58:52.000Z,1038.69
2024-04-12T07:59:52.000Z,1038.63
2024-04-12T08:00:52.000Z,1038.71
2024-04-12T08:01:53.000Z,1038.7
2024-04-12T08:02:53.000Z,1038.7
2024-04-12T08:03:53.000Z,1038.74
2024-04-12T08:04:54.000Z,1038.71
2024-04-12T08:05:54.000Z,1038.71
2024-04-12T08:06:54.000Z,1038.74
2024-04-12T08:07:54.000Z,1038.79
2024-04-12T08:08:55.000Z,1038.73
2024-04-12T08:09:55.000Z,1038.74
2024-04-12T08:10:55.000Z,1038.76
2024-04-12T08:11:55.000Z,1038.77
2024-04-12T08:12:56.000Z,1038.73
2024-04-12T08:13:56.000Z,1038.75
2024-04-12T08:14:56.000Z,1038.71
2024-04-12T08:15:56.000Z,1038.65
2024-04-12T08:16:57.000Z,1038.63
2024-04-12T08:17:57.000Z,1038.56
2024-04-12T08:18:57.000Z,1038.57
2024-04-12T08:19:58.000Z,1038.49
2024-04-12T08:20:58.000Z,1038.47
2024-04-12T08:21:58.000Z,1038.54
2024-04-12T08:22:58.000Z,1038.53
2024-04-12T08:23:59.000Z,1038.56
2024-04-12T08:24:59.000Z,1038.56
2024-04-12T08:25:59.000Z,1038.63
2024-04-12T08:26:59.000Z,1038.59
2024-04-12T08:28:00.000Z,1038.57
2024-04-12T08:29:00.000Z,1038.57
2024-04-12T08:30:00.000Z,1038.54
2024-04-12T08:31:01.000Z,1038.5
2024-04-12T08:32:01.000Z,1038.54
2024-04-12T08:33:01.000Z,1038.52
2024-04-12T08:34:01.000Z,1038.49
2024-04-12T08:35:02.000Z,1038.54
2024-04-12T08:36:02.000Z,1038.49
2024-04-12T08:37:02.000Z,1038.56
2024-04-12T08:38:03.000Z,1038.53
2024-04-12T08:39:03.000Z,1038.52
2024-04-12T08:40:03.000Z,1038.51
2024-04-12T08:41:03.000Z,1038.51
2024-04-12T08:42:04.000Z,1038.52
2024-04-12T08:43:04.000Z,1038.47
2024-04-12T08:44:04.000Z,1038.43
2024-04-12T08:45:04.000Z,1038.45
2024-04-12T08:46:05.000Z,1038.45
2024-04-12T08:47:05.000Z,1038.52
2024-04-12T08:48:05.000Z,1038.6
2024-04-12T08:49:05.000Z,1038.57
2024-04-12T08:50:06.000Z,1038.55
2024-04-12T08:51:06.000Z,1038.58
2024-04-12T08:52:06.000Z,1038.58
2024-04-12T08:53:06.000Z,1038.55
2024-04-12T08:54:07.000Z,1038.54
2024-04-12T08:55:07.000Z,1038.52
2024-04-12T08:56:07.000Z,1038.5
2024-04-12T08:57:08.000Z,1038.48
2024-04-12T08:58:08.000Z,1038.51
2024-04-12T08:59:08.000Z,1038.49
2024-04-12T09:00:08.000Z,1038.43
2024-04-12T09:01:09.000Z,1038.37
2024-04-12T09:02:09.000Z,1038.45
2024-04-12T09:03:09.000Z,1038.46
2024-04-12T09:04:10.000Z,1038.43
2024-04-12T09:05:10.000Z,1038.46
2024-04-12T09:06:10.000Z,1038.43
2024-04-12T09:07:10.000Z,1038.43
2024-04-12T09:08:11.000Z,1038.42
2024-04-12T09:09:11.000Z,1038.44
2024-04-12T09:10:11.000Z,1038.4
2024-04-12T09:11:11.000Z,1038.37
2024-04-12T09:12:12.000Z,1038.29
2024-04-12T09:13:12.000Z,1038.3
2024-04-12T09:14:12.000Z,1038.21
2024-04-12T09:15:13.000Z,1038.18
2024-04-12T09:16:13.000Z,1038.16
2024-04-12T09:17:13.000Z,1038.1
2024-04-12T09:18:13.000Z,1038.09
2024-04-12T09:19:13.000Z,1038.05
2024-04-12T09:20:14.000Z,1038.06
2024-04-12T09:21:14.000Z,1038.07
2024-04-12T09:22:14.000Z,1038.03
2024-04-12T09:23:14.000Z,1037.98
2024-04-12T09:24:15.000Z,1038.03
2024-04-12T09:25:15.000Z,1038.05
2024-04-12T09:26:15.000Z,1038.02
2024-04-12T09:27:15.000Z,1037.95
2024-04-12T09:28:16.000Z,1037.93
2024-04-12T09:29:16.000Z,1037.93
2024-04-12T09:30:16.000Z,1037.93
2024-04-12T09:31:16.000Z,1037.98
2024-04-12T09:32:17.000Z,1037.99
2024-04-12T09:33:17.000Z,1037.95
2024-04-12T09:34:17.000Z,1037.99
2024-04-12T09:35:17.000Z,1037.97
2024-04-12T09:36:18.000Z,1037.96
2024-04-12T09:37:18.000Z,1037.99
2024-04-12T09:38:18.000Z,1037.85
2024-04-12T09:39:18.000Z,1037.91
2024-04-12T09:40:19.000Z,1037.95
2024-04-12T09:41:19.000Z,1037.98
2024-04-12T09:42:19.000Z,1038.0
2024-04-12T09:43:20.000Z,1037.95
2024-04-12T09:44:20.000Z,1037.94
2024-04-12T09:45:20.000Z,1037.96
2024-04-12T09:46:20.000Z,1037.92
2024-04-12T09:47:21.000Z,1037.9
2024-04-12T09:48:21.000Z,1037.91
2024-04-12T09:49:21.000Z,1037.81
2024-04-12T09:50:21.000Z,1037.85
2024-04-12T09:51:22.000Z,1037.83
2024-04-12T09:52:22.000Z,1037.76
2024-04-12T09:53:22.000Z,1037.81
2024-04-12T09:54:22.000Z,1037.75
2024-04-12T09:55:23.000Z,1037.78
2024-04-12T09:56:23.000Z,1037.76
2024-04-12T09:57:23.000Z,1037.78
2024-04-12T09:58:23.000Z,1037.75
2024-04-12T09:59:24.000Z,1037.77
2024-04-12T10:00:24.000Z,1037.72
2024-04-12T10:01:24.000Z,1037.78
2024-04-12T10:02:24.000Z,1037.78
2024-04-12T10:03:25.000Z,1037.81
2024-04-12T10:04:25.000Z,1037.78
2024-04-12T10:05:25.000Z,1037.78
2024-04-12T10:06:25.000Z,1037.74
2024-04-12T10:07:26.000Z,1037.78
2024-04-12T10:08:26.000Z,1037.75
2024-04-12T10:09:26.000Z,1037.78
2024-04-12T10:10:27.000Z,1037.77
2024-04-12T10:11:27.000Z,1037.74
2024-04-12T10:12:27.000Z,1037.7
2024-04-12T10:13:27.000Z,1037.77
2024-04-12T10:14:28.000Z,1037.77
2024-04-12T10:15:28.000Z,1037.76
2024-04-12T10:16:28.000Z,1037.71
2024-04-12T10:17:28.000Z,1037.67
2024-04-12T10:18:29.000Z,1037.74
2024-04-12T10:19:29.000Z,1037.72
2024-04-12T10:20:29.000Z,1037.68
2024-04-12T10:21:29.000Z,1037.68
2024-04-12T10:22:30.000Z,1037.58
2024-04-12T10:23:30.000Z,1037.6
2024-04-12T10:24:30.000Z,1037.52
2024-04-12T10:25:31.000Z,1037.49
2024-04-12T10:26:31.000Z,1037.46
2024-04-12T10:27:31.000Z,1037.48
2024-04-12T10:28:31.000Z,1037.38
2024-04-12T10:29:32.000Z,1037.4
2024-04-12T10:30:32.000Z,1037.35
2024-04-12T10:31:32.000Z,1037.45
2024-04-12T10:32:32.000Z,1037.37
2024-04-12T10:33:33.000Z,1037.47
2024-04-12T10:34:33.000Z,1037.4
2024-04-12T10:35:33.000Z,1037.47
2024-04-12T10:36:34.000Z,1037.47
2024-04-12T10:37:34.000Z,1037.53
2024-04-12T10:38:34.000Z,1037.52
2024-04-12T10:39:34.000Z,1037.52
2024-04-12T10:40:35.000Z,1037.49
2024-04-12T10:41:35.000Z,1037.51
2024-04-12T10:42:35.000Z,1037.41
2024-04-12T10:43:35.000Z,1037.44
2024-04-12T10:44:36.000Z,1037.35
2024-04-12T10:45:36.000Z,1037.4
2024-04-12T10:46:36.000Z,1037.25
2024-04-12T10:47:36.000Z,1037.23
2024-04-12T10:48:37.000Z,1037.2
2024-04-12T10:49:37.000Z,1037.27
2024-04-12T10:50:37.000Z,1037.22
2024-04-12T10:51:37.000Z,1037.17
2024-04-12T10:52:38.000Z,1037.22
2024-04-12T10:53:38.000Z,1037.23
2024-04-12T10:54:38.000Z,1037.14
2024-04-12T10:55:38.000Z,1037.2
2024-04-12T10:56:39.000Z,1037.14
2024-04-12T10:57:39.000Z,1037.18
2024-04-12T10:58:39.000Z,1037.12
2024-04-12T10:59:40.000Z,1037.14
2024-04-12T11:00:40.000Z,1037.06
2024-04-12T11:01:40.000Z,1037.06
2024-04-12T11:02:40.000Z,1037.04
2024-04-12T11:03:41.000Z,1037.05
2024-04-12T11:04:41.000Z,1036.94
2024-04-12T11:05:41.000Z,1036.99
2024-04-12T11:06:42.000Z,1036.91
2024-04-12T11:07:42.000Z,1036.96
2024-04-12T11:08:42.000Z,1036.95
2024-04-12T11:09:42.000Z,1036.97
2024-04-12T11:10:43.000Z,1036.95
2024-04-12T11:11:43.000Z,1036.96
2024-04-12T11:12:43.000Z,1036.97
2024-04-12T11:13:44.000Z,1036.96
2024-04-12T11:14:44.000Z,1036.96
2024-04-12T11:15:44.000Z,1037.0
2024-04-12T11:16:44.000Z,1036.87
2024-04-12T11:17:45.000Z,1036.88
2024-04-12T11:18:45.000Z,1036.88
2024-04-12T11:19:45.000Z,1036.87
2024-04-12T11:20:45.000Z,1036.84
2024-04-12T11:21:45.000Z,1036.77
2024-04-12T11:22:46.000Z,1036.83
2024-04-12T11:23:46.000Z,1036.8
2024-04-12T11:24:46.000Z,1036.83
2024-04-12T11:25:46.000Z,1036.82
2024-04-12T11:26:47.000Z,1036.67
2024-04-12T11:27:47.000Z,1036.75
2024-04-12T11:28:47.000Z,1036.7
2024-04-12T11:29:47.000Z,1036.72
2024-04-12T11:30:48.000Z,1036.73
2024-04-12T11:31:48.000Z,1036.68
2024-04-12T11:32:48.000Z,1036.71
2024-04-12T11:33:48.000Z,1036.72
2024-04-12T11:34:49.000Z,1036.73
2024-04-12T11:35:49.000Z,1036.68
2024-04-12T11:36:49.000Z,1036.71
2024-04-12T11:37:49.000Z,1036.73
2024-04-12T11:38:50.000Z,1036.66
2024-04-12T11:39:50.000Z,1036.66
2024-04-12T11:40:50.000Z,1036.71
2024-04-12T11:41:50.000Z,1036.66
2024-04-12T11:42:51.000Z,1036.62
2024-04-12T11:43:51.000Z,1036.62
2024-04-12T11:44:51.000Z,1036.64
2024-04-12T11:45:51.000Z,1036.7
2024-04-12T11:46:52.000Z,1036.68
2024-04-12T11:47:52.000Z,1036.62
2024-04-12T11:48:52.000Z,1036.66
2024-04-12T11:49:53.000Z,1036.63
2024-04-12T11:50:53.000Z,1036.6
2024-04-12T11:51:53.000Z,1036.58
2024-04-12T11:52:53.000Z,1036.61
2024-04-12T11:53:54.000Z,1036.63
2024-04-12T11:54:54.000Z,1036.63
2024-04-12T11:55:54.000Z,1036.6
2024-04-12T11:56:54.000Z,1036.6
2024-04-12T11:57:55.000Z,1036.58
2024-04-12T11:58:55.000Z,1036.63
2024-04-12T11:59:55.000Z,1036.61
2024-04-12T12:00:56.000Z,1036.57
2024-04-12T12:01:56.000Z,1036.63
2024-04-12T12:02:56.000Z,1036.6
2024-04-12T12:03:56.000Z,1036.6
2024-04-12T12:04:57.000Z,1036.6
2024-04-12T12:05:57.000Z,1036.62
2024-04-12T12:06:57.000Z,1036.63
2024-04-12T12:07:57.000Z,1036.63
2024-04-12T12:08:58.000Z,1036.6
2024-04-12T12:09:58.000Z,1036.57
2024-04-12T12:10:58.000Z,1036.48